createdAt,value
2022-12-13T00:00:17.461Z,1006.9
2022-12-13T00:01:17.464Z,1007.0
2022-12-13T00:02:17.573Z,1006.9
2022-12-13T00:03:17.478Z,1006.9
2022-12-13T00:04:17.632Z,1006.9
2022-12-13T00:05:17.673Z,1006.9
2022-12-13T00:06:17.502Z,1006.9
2022-12-13T00:07:17.509Z,1006.9
2022-12-13T00:08:17.801Z,1006.9
2022-12-13T00:09:17.529Z,1007.0
2022-12-13T00:10:17.545Z,1007.0
2022-12-13T00:11:17.544Z,1006.9
2022-12-13T00:12:17.552Z,1007.0
2022-12-13T00:13:17.561Z,1007.0
2022-12-13T00:14:17.570Z,1007.0
2022-12-13T00:15:17.574Z,1007.0
2022-12-13T00:16:17.787Z,1006.9
2022-12-13T00:17:18.079Z,1007.0
2022-12-13T00:18:17.603Z,1007.0
2022-12-13T00:19:17.608Z,1007.0
2022-12-13T00:20:17.619Z,1006.8
2022-12-13T00:21:17.624Z,1006.9
2022-12-13T00:22:17.635Z,1006.8
2022-12-13T00:23:17.641Z,1006.9
2022-12-13T00:24:17.653Z,1006.8
2022-12-13T00:25:17.662Z,1006.8
2022-12-13T00:26:17.659Z,1006.9
2022-12-13T00:27:17.664Z,1006.8
2022-12-13T00:28:17.676Z,1006.9
2022-12-13T00:29:17.681Z,1006.8
2022-12-13T00:30:17.681Z,1006.9
2022-12-13T00:31:56.477Z,1006.8
2022-12-13T00:32:17.785Z,1006.9
2022-12-13T00:33:17.707Z,1006.9
2022-12-13T00:34:17.716Z,1006.8
2022-12-13T00:35:17.855Z,1006.8
2022-12-13T00:36:17.726Z,1006.8
2022-12-13T00:37:17.747Z,1006.8
2022-12-13T00:38:17.751Z,1006.8
2022-12-13T00:39:17.759Z,1006.9
2022-12-13T00:40:17.755Z,1006.8
2022-12-13T00:41:17.761Z,1006.8
2022-12-13T00:42:17.776Z,1006.8
2022-12-13T00:43:17.785Z,1006.9
2022-12-13T00:44:17.795Z,1006.8
2022-12-13T00:45:17.807Z,1006.9
2022-12-13T00:46:17.918Z,1006.9
2022-12-13T00:47:17.943Z,1006.9
2022-12-13T00:48:17.832Z,1006.9
2022-12-13T00:49:17.833Z,1006.9
2022-12-13T00:50:17.844Z,1006.7
2022-12-13T00:51:17.864Z,1006.7
2022-12-13T00:52:17.857Z,1006.7
2022-12-13T00:53:17.866Z,1006.7
2022-12-13T00:54:17.884Z,1006.7
2022-12-13T00:55:17.883Z,1006.7
2022-12-13T00:56:17.977Z,1006.8
2022-12-13T00:57:17.896Z,1006.7
2022-12-13T00:58:17.903Z,1006.7
2022-12-13T00:59:17.911Z,1006.7
2022-12-13T01:00:17.923Z,1006.7
2022-12-13T01:01:17.994Z,1006.7
2022-12-13T01:02:17.934Z,1006.7
2022-12-13T01:03:18.011Z,1006.6
2022-12-13T01:04:17.947Z,1006.6
2022-12-13T01:06:04.025Z,1006.7
2022-12-13T01:06:18.252Z,1006.7
2022-12-13T01:07:17.961Z,1006.6
2022-12-13T01:08:18.076Z,1006.6
2022-12-13T01:09:18.008Z,1006.6
2022-12-13T01:10:17.996Z,1006.7
2022-12-13T01:11:17.997Z,1006.7
2022-12-13T01:12:18.005Z,1006.6
2022-12-13T01:13:18.007Z,1006.7
2022-12-13T01:14:18.018Z,1006.7
2022-12-13T01:32:18.558Z,1006.6
2022-12-13T01:33:18.159Z,1006.6
2022-12-13T01:34:18.169Z,1006.6
2022-12-13T01:35:18.175Z,1006.6
2022-12-13T01:36:18.183Z,1006.5
2022-12-13T01:37:18.191Z,1006.5
2022-12-13T01:38:18.201Z,1006.5
2022-12-13T01:39:18.207Z,1006.5
2022-12-13T01:40:18.229Z,1006.5
2022-12-13T01:41:18.479Z,1006.6
2022-12-13T01:42:18.240Z,1006.5
2022-12-13T01:43:18.252Z,1006.6
2022-12-13T01:44:18.253Z,1006.5
2022-12-13T01:45:18.266Z,1006.5
2022-12-13T01:46:18.366Z,1006.5
2022-12-13T01:47:18.285Z,1006.6
2022-12-13T01:48:18.296Z,1006.5
2022-12-13T01:49:20.890Z,1006.6
2022-12-13T01:50:18.314Z,1006.5
2022-12-13T01:51:18.324Z,1006.5
2022-12-13T01:52:18.329Z,1006.5
2022-12-13T01:53:18.338Z,1006.5
2022-12-13T01:54:22.016Z,1006.5
2022-12-13T01:55:19.158Z,1006.5
2022-12-13T01:56:18.365Z,1006.5
2022-12-13T01:57:18.375Z,1006.5
2022-12-13T01:58:18.383Z,1006.6
2022-12-13T01:59:18.388Z,1006.6
2022-12-13T02:00:18.411Z,1006.6
2022-12-13T02:01:18.555Z,1006.5
2022-12-13T02:02:18.423Z,1006.5
2022-12-13T02:03:21.924Z,1006.5
2022-12-13T02:04:18.436Z,1006.5
2022-12-13T02:05:19.175Z,1006.6
2022-12-13T02:06:18.453Z,1006.5
2022-12-13T02:07:23.750Z,1006.6
2022-12-13T02:08:18.551Z,1006.5
2022-12-13T02:09:18.475Z,1006.5
2022-12-13T02:10:18.483Z,1006.6
2022-12-13T02:11:18.496Z,1006.4
2022-12-13T02:12:18.505Z,1006.4
2022-12-13T02:13:18.514Z,1006.4
2022-12-13T02:14:18.520Z,1006.5
2022-12-13T02:15:19.254Z,1006.5
2022-12-13T02:16:23.188Z,1006.4
2022-12-13T02:17:18.549Z,1006.4
2022-12-13T02:18:18.565Z,1006.4
2022-12-13T02:19:18.567Z,1006.5
2022-12-13T02:20:22.679Z,1006.4
2022-12-13T02:21:18.585Z,1006.3
2022-12-13T02:22:18.591Z,1006.4
2022-12-13T02:23:18.602Z,1006.4
2022-12-13T02:24:18.603Z,1006.4
2022-12-13T02:25:18.614Z,1006.4
2022-12-13T02:26:18.632Z,1006.4
2022-12-13T02:27:30.106Z,1006.4
2022-12-13T02:28:31.038Z,1006.4
2022-12-13T02:29:30.261Z,1006.4
2022-12-13T02:30:18.665Z,1006.4
2022-12-13T02:31:18.783Z,1006.4
2022-12-13T02:32:18.681Z,1006.4
2022-12-13T02:33:22.174Z,1006.4
2022-12-13T02:34:18.697Z,1006.4
2022-12-13T02:35:18.709Z,1006.4
2022-12-13T02:36:18.719Z,1006.4
2022-12-13T02:37:18.720Z,1006.3
2022-12-13T02:38:24.796Z,1006.3
2022-12-13T02:39:30.013Z,1006.2
2022-12-13T02:40:18.752Z,1006.2
2022-12-13T02:41:18.775Z,1006.2
2022-12-13T02:42:22.365Z,1006.2
2022-12-13T02:43:21.702Z,1006.2
2022-12-13T02:44:23.366Z,1006.2
2022-12-13T02:45:21.349Z,1006.1
2022-12-13T02:46:18.904Z,1006.2
2022-12-13T02:47:22.584Z,1006.2
2022-12-13T02:48:18.827Z,1006.2
2022-12-13T02:49:18.836Z,1006.3
2022-12-13T02:50:18.854Z,1006.1
2022-12-13T02:51:18.860Z,1006.2
2022-12-13T02:52:22.956Z,1006.2
2022-12-13T02:53:18.878Z,1006.2
2022-12-13T02:54:18.890Z,1006.2
2022-12-13T02:55:18.999Z,1006.2
2022-12-13T02:56:18.912Z,1006.2
2022-12-13T02:57:21.805Z,1006.3
2022-12-13T02:58:18.932Z,1006.2
2022-12-13T02:59:18.932Z,1006.2
2022-12-13T03:00:18.942Z,1006.1
2022-12-13T03:01:29.858Z,1006.2
2022-12-13T03:02:30.974Z,1006.2
2022-12-13T03:03:19.343Z,1006.3
2022-12-13T03:04:26.399Z,1006.2
2022-12-13T03:05:18.991Z,1006.1
2022-12-13T03:06:19.000Z,1006.1
2022-12-13T03:07:19.004Z,1006.2
2022-12-13T03:08:19.144Z,1006.2
2022-12-13T03:09:19.021Z,1006.2
2022-12-13T03:10:19.031Z,1006.2
2022-12-13T03:11:19.037Z,1006.2
2022-12-13T03:12:19.043Z,1006.2
2022-12-13T03:13:19.046Z,1006.2
2022-12-13T03:14:19.058Z,1006.2
2022-12-13T03:15:19.066Z,1006.2
2022-12-13T03:16:23.389Z,1006.2
2022-12-13T03:17:19.076Z,1006.2
2022-12-13T03:18:19.083Z,1006.1
2022-12-13T03:19:19.092Z,1006.2
2022-12-13T03:20:23.632Z,1006.2
2022-12-13T03:21:19.109Z,1006.2
2022-12-13T03:22:19.151Z,1006.2
2022-12-13T03:23:19.196Z,1006.1
2022-12-13T03:24:19.258Z,1006.1
2022-12-13T03:25:30.501Z,1006.2
2022-12-13T03:26:19.155Z,1006.1
2022-12-13T03:27:19.162Z,1006.2
2022-12-13T03:28:19.165Z,1006.2
2022-12-13T03:29:25.075Z,1006.2
2022-12-13T03:30:19.182Z,1006.2
2022-12-13T03:31:19.317Z,1006.3
2022-12-13T03:32:19.197Z,1006.3
2022-12-13T03:33:19.213Z,1006.2
2022-12-13T03:34:23.643Z,1006.2
2022-12-13T03:35:22.913Z,1006.1
2022-12-13T03:36:19.231Z,1006.2
2022-12-13T03:37:19.239Z,1006.2
2022-12-13T03:38:23.320Z,1006.2
2022-12-13T03:39:19.267Z,1006.2
2022-12-13T03:40:19.282Z,1006.2
2022-12-13T03:41:19.268Z,1006.2
2022-12-13T03:42:19.278Z,1006.2
2022-12-13T03:43:23.031Z,1006.1
2022-12-13T03:44:19.309Z,1006.1
2022-12-13T03:45:19.303Z,1006.1
2022-12-13T03:46:19.381Z,1006.1
2022-12-13T03:47:19.336Z,1006.1
2022-12-13T03:48:23.566Z,1006.0
2022-12-13T03:49:19.344Z,1006.1
2022-12-13T03:50:27.630Z,1006.0
2022-12-13T03:51:19.361Z,1006.0
2022-12-13T03:52:19.367Z,1006.0
2022-12-13T03:53:32.969Z,1006.0
2022-12-13T03:54:19.378Z,1006.1
2022-12-13T03:55:19.397Z,1006.1
2022-12-13T03:56:19.414Z,1006.1
2022-12-13T03:57:19.406Z,1006.1
2022-12-13T03:58:19.418Z,1006.1
2022-12-13T03:59:19.420Z,1006.1
2022-12-13T04:00:19.431Z,1006.1
2022-12-13T04:01:19.580Z,1006.1
2022-12-13T04:02:30.899Z,1006.0
2022-12-13T04:03:19.535Z,1006.1
2022-12-13T04:04:19.464Z,1006.0
2022-12-13T04:05:19.469Z,1006.0
2022-12-13T04:06:23.416Z,1006.0
2022-12-13T04:07:22.855Z,1005.9
2022-12-13T04:08:22.846Z,1006.0
2022-12-13T04:09:19.504Z,1006.0
2022-12-13T04:10:26.839Z,1005.9
2022-12-13T04:11:19.521Z,1006.0
2022-12-13T04:12:19.529Z,1005.9
2022-12-13T04:13:19.535Z,1006.0
2022-12-13T04:14:23.151Z,1005.8
2022-12-13T04:15:19.552Z,1005.9
2022-12-13T04:16:19.708Z,1005.9
2022-12-13T04:17:19.564Z,1005.9
2022-12-13T04:18:19.571Z,1005.9
2022-12-13T04:19:24.339Z,1005.8
2022-12-13T04:20:19.585Z,1005.8
2022-12-13T04:21:19.598Z,1005.8
2022-12-13T04:22:25.127Z,1005.8
2022-12-13T04:23:19.633Z,1005.8
2022-12-13T04:24:19.608Z,1005.8
2022-12-13T04:25:19.622Z,1005.8
2022-12-13T04:26:19.626Z,1005.8
2022-12-13T04:27:19.659Z,1005.8
2022-12-13T04:28:23.240Z,1005.8
2022-12-13T04:29:19.658Z,1005.8
2022-12-13T04:30:19.670Z,1005.8
2022-12-13T04:31:19.753Z,1005.8
2022-12-13T04:32:27.573Z,1005.9
2022-12-13T04:33:19.693Z,1005.8
2022-12-13T04:34:21.341Z,1005.8
2022-12-13T04:35:19.706Z,1005.8
2022-12-13T04:36:31.286Z,1005.8
2022-12-13T04:37:19.728Z,1005.8
2022-12-13T04:38:19.733Z,1005.8
2022-12-13T04:39:23.050Z,1005.8
2022-12-13T04:40:22.202Z,1005.8
2022-12-13T04:41:19.756Z,1005.8
2022-12-13T04:42:19.760Z,1005.8
2022-12-13T04:43:19.768Z,1005.8
2022-12-13T04:44:31.566Z,1005.8
2022-12-13T04:45:19.789Z,1005.8
2022-12-13T04:46:19.811Z,1005.8
2022-12-13T04:47:19.809Z,1005.7
2022-12-13T04:48:30.553Z,1005.7
2022-12-13T04:49:19.828Z,1005.7
2022-12-13T04:50:19.839Z,1005.7
2022-12-13T04:51:19.855Z,1005.7
2022-12-13T04:52:22.935Z,1005.6
2022-12-13T04:53:19.866Z,1005.7
2022-12-13T04:54:24.773Z,1005.7
2022-12-13T04:55:19.881Z,1005.7
2022-12-13T04:56:19.890Z,1005.8
2022-12-13T04:57:19.903Z,1005.7
2022-12-13T04:58:23.401Z,1005.7
2022-12-13T04:59:19.918Z,1005.8
2022-12-13T05:00:19.942Z,1005.7
2022-12-13T05:01:20.118Z,1005.8
2022-12-13T05:02:29.977Z,1005.7
2022-12-13T05:03:19.955Z,1005.7
2022-12-13T05:04:19.964Z,1005.7
2022-12-13T05:05:19.979Z,1005.8
2022-12-13T05:06:27.889Z,1005.7
2022-12-13T05:07:19.997Z,1005.9
2022-12-13T05:08:20.131Z,1005.8
2022-12-13T05:09:20.010Z,1005.8
2022-12-13T05:10:32.018Z,1005.8
2022-12-13T05:11:23.194Z,1005.8
2022-12-13T05:12:23.494Z,1005.8
2022-12-13T05:13:20.066Z,1005.7
2022-12-13T05:14:23.805Z,1005.8
2022-12-13T05:15:20.080Z,1005.8
2022-12-13T05:16:25.018Z,1005.8
2022-12-13T05:17:20.097Z,1005.8
2022-12-13T05:18:20.102Z,1005.8
2022-12-13T05:19:20.110Z,1005.8
2022-12-13T05:20:20.114Z,1005.9
2022-12-13T05:21:20.125Z,1005.8
2022-12-13T05:22:21.474Z,1005.8
2022-12-13T05:23:23.160Z,1005.8
2022-12-13T05:24:20.143Z,1005.8
2022-12-13T05:25:20.156Z,1005.8
2022-12-13T05:26:20.170Z,1005.8
2022-12-13T05:27:26.829Z,1005.7
2022-12-13T05:28:29.114Z,1005.8
2022-12-13T05:29:20.190Z,1005.8
2022-12-13T05:30:20.200Z,1005.9
2022-12-13T05:31:24.211Z,1005.8
2022-12-13T05:32:20.342Z,1005.7
2022-12-13T05:33:20.214Z,1005.8
2022-12-13T05:34:20.224Z,1005.7
2022-12-13T05:35:23.952Z,1005.8
2022-12-13T05:36:20.241Z,1005.7
2022-12-13T05:37:20.253Z,1005.8
2022-12-13T05:38:20.259Z,1005.8
2022-12-13T05:39:29.963Z,1005.8
2022-12-13T05:40:20.273Z,1005.8
2022-12-13T05:41:20.276Z,1005.8
2022-12-13T05:42:20.289Z,1005.8
2022-12-13T05:43:22.553Z,1005.8
2022-12-13T05:44:20.302Z,1005.8
2022-12-13T05:45:20.309Z,1005.8
2022-12-13T05:46:20.425Z,1005.8
2022-12-13T05:47:20.323Z,1005.8
2022-12-13T05:48:25.077Z,1005.8
2022-12-13T05:49:20.336Z,1005.7
2022-12-13T05:50:20.341Z,1005.8
2022-12-13T05:51:20.352Z,1005.8
2022-12-13T05:52:20.357Z,1005.8
2022-12-13T05:53:31.257Z,1005.8
2022-12-13T05:54:20.373Z,1005.8
2022-12-13T05:55:20.649Z,1005.8
2022-12-13T05:56:23.488Z,1005.8
2022-12-13T05:57:20.392Z,1005.8
2022-12-13T05:58:23.559Z,1005.8
2022-12-13T05:59:20.412Z,1005.7
2022-12-13T06:00:30.936Z,1005.8
2022-12-13T06:01:20.432Z,1005.7
2022-12-13T06:02:22.155Z,1005.8
2022-12-13T06:03:20.886Z,1005.7
2022-12-13T06:04:23.696Z,1005.7
2022-12-13T06:05:20.476Z,1005.8
2022-12-13T06:06:20.481Z,1005.8
2022-12-13T06:07:20.504Z,1005.7
2022-12-13T06:08:25.615Z,1005.8
2022-12-13T06:09:20.515Z,1005.8
2022-12-13T06:10:22.157Z,1005.8
2022-12-13T06:11:31.505Z,1005.8
2022-12-13T06:12:31.372Z,1005.8
2022-12-13T06:13:32.251Z,1005.8
2022-12-13T06:14:23.340Z,1005.8
2022-12-13T06:15:23.096Z,1005.8
2022-12-13T06:16:24.397Z,1005.7
2022-12-13T06:17:21.708Z,1005.8
2022-12-13T06:18:20.576Z,1005.8
2022-12-13T06:19:20.588Z,1005.7
2022-12-13T06:20:24.927Z,1005.8
2022-12-13T06:21:20.605Z,1005.8
2022-12-13T06:22:20.612Z,1005.8
2022-12-13T06:23:20.626Z,1005.7
2022-12-13T06:24:20.634Z,1005.7
2022-12-13T06:25:32.059Z,1005.8
2022-12-13T06:26:20.650Z,1005.7
2022-12-13T06:27:20.664Z,1005.8
2022-12-13T06:28:20.671Z,1005.7
2022-12-13T06:29:25.641Z,1005.8
2022-12-13T06:30:20.689Z,1005.7
2022-12-13T06:31:20.787Z,1005.8
2022-12-13T06:32:20.709Z,1005.7
2022-12-13T06:33:23.891Z,1005.8
2022-12-13T06:34:20.720Z,1005.8
2022-12-13T06:35:32.249Z,1005.7
2022-12-13T06:36:20.743Z,1005.7
2022-12-13T06:37:20.750Z,1005.7
2022-12-13T06:38:30.995Z,1005.7
2022-12-13T06:39:20.760Z,1005.8
2022-12-13T06:40:23.519Z,1005.8
2022-12-13T06:41:20.795Z,1005.8
2022-12-13T06:42:22.697Z,1005.8
2022-12-13T06:43:20.803Z,1005.8
2022-12-13T06:44:20.816Z,1005.8
2022-12-13T06:45:20.820Z,1005.8
2022-12-13T06:46:20.932Z,1005.8
2022-12-13T06:47:30.899Z,1005.8
2022-12-13T06:48:20.848Z,1005.7
2022-12-13T06:49:22.369Z,1005.8
2022-12-13T06:50:20.860Z,1005.8
2022-12-13T06:51:23.292Z,1005.7
2022-12-13T06:52:20.867Z,1005.9
2022-12-13T06:53:20.887Z,1005.8
2022-12-13T06:54:22.230Z,1005.8
2022-12-13T06:55:24.377Z,1005.9
2022-12-13T06:56:20.915Z,1005.9
2022-12-13T06:57:20.931Z,1005.8
2022-12-13T06:58:20.928Z,1005.8
2022-12-13T06:59:20.948Z,1005.8
2022-12-13T07:00:24.272Z,1005.8
2022-12-13T07:01:25.060Z,1005.8
2022-12-13T07:02:26.305Z,1005.9
2022-12-13T07:03:21.097Z,1005.8
2022-12-13T07:04:31.170Z,1005.8
2022-12-13T07:05:20.998Z,1005.9
2022-12-13T07:06:21.008Z,1005.9
2022-12-13T07:07:21.026Z,1005.8
2022-12-13T07:08:22.691Z,1005.9
2022-12-13T07:09:21.039Z,1005.8
2022-12-13T07:10:23.078Z,1005.9
2022-12-13T07:11:21.051Z,1005.9
2022-12-13T07:12:21.282Z,1005.9
2022-12-13T07:13:21.077Z,1005.9
2022-12-13T07:14:21.090Z,1005.9
2022-12-13T07:15:21.094Z,1006.0
2022-12-13T07:16:21.154Z,1006.0
2022-12-13T07:17:32.262Z,1005.9
2022-12-13T07:18:21.124Z,1005.9
2022-12-13T07:19:24.780Z,1005.8
2022-12-13T07:20:21.149Z,1005.9
2022-12-13T07:21:22.537Z,1005.9
2022-12-13T07:22:21.171Z,1005.9
2022-12-13T07:23:24.794Z,1005.9
2022-12-13T07:24:21.189Z,1005.8
2022-12-13T07:25:29.589Z,1005.9
2022-12-13T07:26:21.202Z,1006.0
2022-12-13T07:27:21.204Z,1005.9
2022-12-13T07:28:21.214Z,1005.9
2022-12-13T07:29:23.035Z,1005.9
2022-12-13T07:30:21.235Z,1005.9
2022-12-13T07:31:21.317Z,1005.9
2022-12-13T07:32:21.262Z,1005.9
2022-12-13T07:33:22.922Z,1006.0
2022-12-13T07:34:21.278Z,1005.9
2022-12-13T07:35:21.297Z,1005.9
2022-12-13T07:36:21.286Z,1005.9
2022-12-13T07:37:31.235Z,1005.8
2022-12-13T07:38:21.302Z,1005.9
2022-12-13T07:39:21.311Z,1005.8
2022-12-13T07:40:21.326Z,1005.9
2022-12-13T07:41:24.541Z,1005.8
2022-12-13T07:42:21.335Z,1005.9
2022-12-13T07:43:22.376Z,1005.9
2022-12-13T07:44:21.347Z,1005.9
2022-12-13T07:45:21.373Z,1005.9
2022-12-13T07:46:32.237Z,1005.9
2022-12-13T07:47:22.911Z,1005.9
2022-12-13T07:48:21.399Z,1005.9
2022-12-13T07:49:21.404Z,1005.9
2022-12-13T07:50:25.882Z,1005.9
2022-12-13T07:51:21.418Z,1005.8
2022-12-13T07:52:21.429Z,1005.9
2022-12-13T07:53:22.246Z,1006.0
2022-12-13T07:54:21.446Z,1006.0
2022-12-13T07:55:33.263Z,1006.0
2022-12-13T07:56:21.457Z,1006.0
2022-12-13T07:57:21.463Z,1006.0
2022-12-13T07:58:21.472Z,1005.9
2022-12-13T07:59:29.199Z,1006.1
2022-12-13T08:00:21.493Z,1006.0
2022-12-13T08:01:21.690Z,1006.0
2022-12-13T08:02:21.518Z,1006.1
2022-12-13T08:03:26.363Z,1006.1
2022-12-13T08:04:21.636Z,1006.1
2022-12-13T08:05:27.442Z,1006.1
2022-12-13T08:06:21.578Z,1006.0
2022-12-13T08:07:21.567Z,1006.0
2022-12-13T08:08:31.774Z,1006.1
2022-12-13T08:09:21.609Z,1006.1
2022-12-13T08:10:21.593Z,1006.0
2022-12-13T08:11:21.613Z,1006.1
2022-12-13T08:12:23.200Z,1006.0
2022-12-13T08:13:22.258Z,1006.0
2022-12-13T08:14:21.646Z,1006.1
2022-12-13T08:15:21.642Z,1006.1
2022-12-13T08:16:29.289Z,1006.1
2022-12-13T08:17:21.663Z,1006.1
2022-12-13T08:18:21.679Z,1006.1
2022-12-13T08:19:21.752Z,1006.1
2022-12-13T08:20:22.580Z,1006.1
2022-12-13T08:21:53.112Z,1006.2
2022-12-13T08:22:24.477Z,1006.0
2022-12-13T08:23:22.718Z,1006.1
2022-12-13T08:24:21.720Z,1006.1
2022-12-13T08:25:21.727Z,1006.1
2022-12-13T08:26:21.732Z,1006.1
2022-12-13T08:27:21.748Z,1006.0
2022-12-13T08:28:21.772Z,1006.0
2022-12-13T08:29:33.104Z,1006.1
2022-12-13T08:30:23.390Z,1006.0
2022-12-13T08:31:21.953Z,1006.0
2022-12-13T08:32:21.788Z,1006.0
2022-12-13T08:33:22.778Z,1006.0
2022-12-13T08:34:21.819Z,1006.0
2022-12-13T08:35:21.813Z,1006.0
2022-12-13T08:36:21.826Z,1006.0
2022-12-13T08:37:21.850Z,1006.0
2022-12-13T08:38:23.186Z,1006.0
2022-12-13T08:39:21.842Z,1006.0
2022-12-13T08:40:21.856Z,1005.9
2022-12-13T08:41:21.872Z,1005.9
2022-12-13T08:42:21.877Z,1005.9
2022-12-13T08:43:25.425Z,1005.9
2022-12-13T08:44:21.932Z,1005.8
2022-12-13T08:45:21.934Z,1005.9
2022-12-13T08:46:29.811Z,1005.8
2022-12-13T08:47:26.204Z,1005.8
2022-12-13T08:48:23.164Z,1005.9
2022-12-13T08:49:22.191Z,1005.8
2022-12-13T08:50:21.978Z,1005.9
2022-12-13T08:51:35.480Z,1005.9
2022-12-13T08:52:22.006Z,1005.9
2022-12-13T08:53:30.262Z,1005.9
2022-12-13T08:54:31.887Z,1005.9
2022-12-13T08:55:32.594Z,1005.9
2022-12-13T08:56:22.049Z,1005.9
2022-12-13T08:57:22.068Z,1005.9
2022-12-13T08:58:22.109Z,1005.9
2022-12-13T08:59:22.082Z,1005.9
2022-12-13T09:00:22.091Z,1005.9
2022-12-13T09:01:22.278Z,1005.9
2022-12-13T09:02:22.297Z,1005.9
2022-12-13T09:03:22.966Z,1005.9
2022-12-13T09:04:32.376Z,1005.9
2022-12-13T09:05:34.465Z,1005.9
2022-12-13T09:06:22.163Z,1006.0
2022-12-13T09:07:22.155Z,1006.0
2022-12-13T09:08:25.479Z,1005.9
2022-12-13T09:09:22.182Z,1005.9
2022-12-13T09:10:27.963Z,1005.9
2022-12-13T09:11:33.004Z,1005.9
2022-12-13T09:12:31.306Z,1006.0
2022-12-13T09:13:32.959Z,1005.9
2022-12-13T09:14:23.771Z,1006.0
2022-12-13T09:15:23.600Z,1005.9
2022-12-13T09:16:24.356Z,1005.9
2022-12-13T09:17:25.460Z,1006.0
2022-12-13T09:18:27.973Z,1005.8
2022-12-13T09:19:26.940Z,1005.9
2022-12-13T09:20:30.164Z,1005.8
2022-12-13T09:21:32.314Z,1005.9
2022-12-13T09:22:32.910Z,1005.8
2022-12-13T09:23:24.664Z,1005.7
2022-12-13T09:24:25.021Z,1005.8
2022-12-13T09:25:24.578Z,1005.9
2022-12-13T09:26:25.737Z,1005.7
2022-12-13T09:27:28.524Z,1005.9
2022-12-13T09:28:22.386Z,1005.9
2022-12-13T09:29:22.396Z,1005.9
2022-12-13T09:30:22.402Z,1005.9
2022-12-13T09:31:22.640Z,1005.9
2022-12-13T09:32:22.428Z,1005.9
2022-12-13T09:33:31.371Z,1006.0
2022-12-13T09:34:22.642Z,1006.0
2022-12-13T09:35:22.467Z,1006.0
2022-12-13T09:36:22.474Z,1006.0
2022-12-13T09:37:23.500Z,1005.9
2022-12-13T09:38:22.497Z,1005.9
2022-12-13T09:39:22.505Z,1005.9
2022-12-13T09:40:26.775Z,1006.0
2022-12-13T09:41:29.748Z,1005.9
2022-12-13T09:42:31.118Z,1005.9
2022-12-13T09:43:33.679Z,1006.0
2022-12-13T09:44:42.588Z,1006.0
2022-12-13T09:45:32.399Z,1005.9
2022-12-13T09:46:23.899Z,1006.0
2022-12-13T09:47:24.510Z,1005.9
2022-12-13T09:48:23.415Z,1006.0
2022-12-13T09:49:23.852Z,1006.0
2022-12-13T09:50:25.709Z,1005.9
2022-12-13T09:51:41.341Z,1005.9
2022-12-13T09:52:22.882Z,1005.9
2022-12-13T09:53:22.776Z,1005.9
2022-12-13T09:54:22.645Z,1005.9
2022-12-13T09:55:22.647Z,1005.9
2022-12-13T09:56:22.657Z,1005.8
2022-12-13T09:57:34.041Z,1005.9
2022-12-13T09:58:23.300Z,1005.9
2022-12-13T09:59:22.685Z,1005.9
2022-12-13T10:00:22.703Z,1005.9
2022-12-13T10:01:23.911Z,1005.9
2022-12-13T10:02:22.777Z,1005.9
2022-12-13T10:03:23.420Z,1005.8
2022-12-13T10:04:22.766Z,1005.9
2022-12-13T10:05:35.797Z,1005.8
2022-12-13T10:06:24.167Z,1005.8
2022-12-13T10:07:22.782Z,1005.9
2022-12-13T10:08:22.799Z,1005.9
2022-12-13T10:09:22.805Z,1005.8
2022-12-13T10:10:22.818Z,1005.8
2022-12-13T10:11:32.747Z,1005.8
2022-12-13T10:12:22.830Z,1005.7
2022-12-13T10:13:23.562Z,1005.8
2022-12-13T10:14:22.859Z,1005.9
2022-12-13T10:15:23.058Z,1005.8
2022-12-13T10:16:24.369Z,1005.8
2022-12-13T10:17:22.885Z,1005.9
2022-12-13T10:18:22.900Z,1005.8
2022-12-13T10:19:30.324Z,1005.8
2022-12-13T10:20:22.928Z,1005.8
2022-12-13T10:21:22.941Z,1005.7
2022-12-13T10:22:22.943Z,1005.8
2022-12-13T10:23:52.846Z,1005.7
2022-12-13T10:24:36.172Z,1005.7
2022-12-13T10:25:22.973Z,1005.7
2022-12-13T10:26:25.104Z,1005.8
2022-12-13T10:27:22.996Z,1005.8
2022-12-13T10:28:22.996Z,1005.8
2022-12-13T10:29:23.011Z,1005.7
2022-12-13T10:30:29.415Z,1005.8
2022-12-13T10:31:23.172Z,1005.8
2022-12-13T10:32:23.043Z,1005.8
2022-12-13T10:33:25.174Z,1005.7
2022-12-13T10:34:23.070Z,1005.8
2022-12-13T10:35:23.078Z,1005.7
2022-12-13T10:36:26.744Z,1005.8
2022-12-13T10:37:23.090Z,1005.8
2022-12-13T10:38:32.447Z,1005.7
2022-12-13T10:39:23.117Z,1005.7
2022-12-13T10:40:33.221Z,1005.7
2022-12-13T10:41:23.127Z,1005.7
2022-12-13T10:42:32.276Z,1005.6
2022-12-13T10:43:24.190Z,1005.6
2022-12-13T10:44:23.161Z,1005.8
2022-12-13T10:45:24.277Z,1005.7
2022-12-13T10:46:25.622Z,1005.6
2022-12-13T10:47:23.186Z,1005.7
2022-12-13T10:48:23.204Z,1005.7
2022-12-13T10:49:23.208Z,1005.6
2022-12-13T10:50:23.221Z,1005.6
2022-12-13T10:51:23.236Z,1005.7
2022-12-13T10:52:32.140Z,1005.6
2022-12-13T10:53:23.947Z,1005.6
2022-12-13T10:54:23.263Z,1005.6
2022-12-13T10:55:24.230Z,1005.6
2022-12-13T10:56:24.141Z,1005.5
2022-12-13T10:57:23.287Z,1005.5
2022-12-13T10:58:23.294Z,1005.6
2022-12-13T10:59:23.304Z,1005.7
2022-12-13T11:00:23.315Z,1005.6
2022-12-13T11:01:23.436Z,1005.5
2022-12-13T11:02:23.433Z,1005.5
2022-12-13T11:03:23.869Z,1005.5
2022-12-13T11:04:28.352Z,1005.5
2022-12-13T11:05:23.660Z,1005.5
2022-12-13T11:06:23.387Z,1005.5
2022-12-13T11:07:23.401Z,1005.5
2022-12-13T11:08:24.478Z,1005.5
2022-12-13T11:09:23.734Z,1005.5
2022-12-13T11:10:27.859Z,1005.5
2022-12-13T11:11:23.447Z,1005.4
2022-12-13T11:12:23.460Z,1005.4
2022-12-13T11:13:24.095Z,1005.4
2022-12-13T11:14:32.706Z,1005.4
2022-12-13T11:15:23.531Z,1005.5
2022-12-13T11:16:23.693Z,1005.5
2022-12-13T11:17:23.512Z,1005.4
2022-12-13T11:18:24.172Z,1005.4
2022-12-13T11:19:25.604Z,1005.3
2022-12-13T11:20:23.540Z,1005.4
2022-12-13T11:21:23.547Z,1005.3
2022-12-13T11:22:23.577Z,1005.3
2022-12-13T11:23:23.567Z,1005.3
2022-12-13T11:24:23.587Z,1005.4
2022-12-13T11:25:23.595Z,1005.3
2022-12-13T11:26:24.910Z,1005.3
2022-12-13T11:27:23.614Z,1005.4
2022-12-13T11:28:27.948Z,1005.3
2022-12-13T11:29:23.637Z,1005.3
2022-12-13T11:30:23.651Z,1005.3
2022-12-13T11:31:23.797Z,1005.3
2022-12-13T11:32:23.673Z,1005.3
2022-12-13T11:33:23.688Z,1005.2
2022-12-13T11:34:23.697Z,1005.2
2022-12-13T11:35:23.707Z,1005.2
2022-12-13T11:36:23.729Z,1005.1
2022-12-13T11:37:23.733Z,1005.1
2022-12-13T11:38:24.618Z,1005.0
2022-12-13T11:39:23.745Z,1005.0
2022-12-13T11:40:23.761Z,1005.0
2022-12-13T11:41:33.153Z,1005.1
2022-12-13T11:42:23.778Z,1005.0
2022-12-13T11:43:23.790Z,1005.0
2022-12-13T11:44:23.807Z,1005.0
2022-12-13T11:45:23.886Z,1005.0
2022-12-13T11:46:23.856Z,1005.0
2022-12-13T11:47:23.859Z,1005.0
2022-12-13T11:48:24.544Z,1005.0
2022-12-13T11:49:23.847Z,1005.0
2022-12-13T11:50:34.482Z,1005.0
2022-12-13T11:51:23.871Z,1005.0
2022-12-13T11:52:23.881Z,1005.0
2022-12-13T11:53:24.759Z,1004.9
2022-12-13T11:54:24.547Z,1005.0
2022-12-13T11:55:23.908Z,1004.9
2022-12-13T11:56:23.935Z,1005.0
2022-12-13T11:57:23.925Z,1005.0
2022-12-13T11:59:27.857Z,1005.0
2022-12-13T12:00:35.160Z,1005.0
2022-12-13T12:01:23.966Z,1005.0
2022-12-13T12:02:24.095Z,1005.0
2022-12-13T12:03:24.098Z,1005.0
2022-12-13T12:04:23.997Z,1005.0
2022-12-13T12:05:24.009Z,1005.0
2022-12-13T12:06:24.039Z,1005.0
2022-12-13T12:07:34.090Z,1005.0
2022-12-13T12:08:33.641Z,1005.0
2022-12-13T12:09:24.061Z,1004.9
2022-12-13T12:10:24.069Z,1004.9
2022-12-13T12:11:24.078Z,1004.9
2022-12-13T12:12:24.094Z,1004.9
2022-12-13T12:13:27.752Z,1004.9
2022-12-13T12:14:24.116Z,1004.8
2022-12-13T12:15:27.515Z,1004.9
2022-12-13T12:16:24.292Z,1004.8
2022-12-13T12:17:24.154Z,1004.9
2022-12-13T12:18:24.899Z,1004.9
2022-12-13T12:19:24.182Z,1004.9
2022-12-13T12:20:24.704Z,1004.8
2022-12-13T12:22:04.715Z,1004.9
2022-12-13T12:22:24.217Z,1004.9
2022-12-13T12:23:24.226Z,1004.8
2022-12-13T12:24:24.250Z,1004.8
2022-12-13T12:25:24.238Z,1004.8
2022-12-13T12:26:24.254Z,1004.8
2022-12-13T12:27:24.268Z,1004.8
2022-12-13T12:28:24.866Z,1004.9
2022-12-13T12:29:24.289Z,1004.8
2022-12-13T12:30:24.672Z,1004.8
2022-12-13T12:31:24.456Z,1004.8
2022-12-13T12:32:24.323Z,1004.9
2022-12-13T12:33:24.329Z,1004.8
2022-12-13T12:34:28.241Z,1004.8
2022-12-13T12:35:24.382Z,1004.8
2022-12-13T12:36:24.360Z,1004.8
2022-12-13T12:37:24.366Z,1004.8
2022-12-13T12:38:25.372Z,1004.7
2022-12-13T12:39:26.850Z,1004.8
2022-12-13T12:40:24.398Z,1004.7
2022-12-13T12:41:24.408Z,1004.7
2022-12-13T12:42:24.434Z,1004.7
2022-12-13T12:43:24.445Z,1004.7
2022-12-13T12:44:31.437Z,1004.7
2022-12-13T12:46:24.555Z,1004.7
2022-12-13T12:49:24.612Z,1004.7